createdAt,value
2016-09-17T00:00:28.278Z,0
2016-09-17T00:01:29.677Z,0
2016-09-17T00:02:30.469Z,0
2016-09-17T00:03:31.740Z,0
2016-09-17T00:04:32.408Z,0
2016-09-17T00:05:33.038Z,0
2016-09-17T00:06:35.692Z,0
2016-09-17T00:07:36.638Z,0
2016-09-17T00:08:37.216Z,0
2016-09-17T00:09:37.875Z,0
2016-09-17T00:10:38.538Z,0
2016-09-17T00:11:39.210Z,0
2016-09-17T00:12:39.869Z,0
2016-09-17T00:13:40.512Z,0
2016-09-17T00:14:41.174Z,0
2016-09-17T00:15:41.846Z,0
2016-09-17T00:16:42.517Z,0
2016-09-17T00:17:43.238Z,0
2016-09-17T00:18:44.031Z,0
2016-09-17T00:19:44.611Z,0
2016-09-17T00:20:45.311Z,0
2016-09-17T00:21:45.956Z,0
2016-09-17T00:22:46.613Z,0
2016-09-17T00:23:48.005Z,0
2016-09-17T00:24:48.666Z,0
2016-09-17T00:25:49.342Z,0
2016-09-17T00:26:50.272Z,0
2016-09-17T00:27:50.943Z,0
2016-09-17T00:28:51.645Z,0
2016-09-17T00:29:52.291Z,0
2016-09-17T00:30:52.959Z,0
2016-09-17T00:31:53.686Z,0
2016-09-17T00:32:54.359Z,0
2016-09-17T00:33:55.035Z,0
2016-09-17T00:34:55.690Z,0
2016-09-17T00:35:56.386Z,0
2016-09-17T00:36:57.032Z,0
2016-09-17T00:37:57.697Z,0
2016-09-17T00:38:58.372Z,0
2016-09-17T00:39:59.063Z,0
2016-09-17T00:40:59.725Z,0
2016-09-17T00:42:00.397Z,0
2016-09-17T00:43:01.061Z,0
2016-09-17T00:44:01.733Z,0
2016-09-17T00:45:02.391Z,0
2016-09-17T00:46:03.069Z,0
2016-09-17T00:47:03.755Z,0
2016-09-17T00:48:04.389Z,0
2016-09-17T00:49:05.044Z,0
2016-09-17T00:50:05.688Z,0
2016-09-17T00:51:06.349Z,0
2016-09-17T00:52:07.005Z,0
2016-09-17T00:53:07.680Z,0
2016-09-17T00:54:08.353Z,0
2016-09-17T00:55:08.998Z,0
2016-09-17T00:56:09.643Z,0
2016-09-17T00:57:10.305Z,0
2016-09-17T00:58:10.966Z,0
2016-09-17T00:59:11.610Z,0
2016-09-17T01:00:12.272Z,0
2016-09-17T01:01:12.920Z,0
2016-09-17T01:02:13.577Z,0
2016-09-17T01:03:14.215Z,0
2016-09-17T01:04:14.856Z,0
2016-09-17T01:05:15.505Z,0
2016-09-17T01:06:16.145Z,0
2016-09-17T01:07:16.794Z,0
2016-09-17T01:08:17.449Z,0
2016-09-17T01:09:18.088Z,0
2016-09-17T01:10:18.735Z,0
2016-09-17T01:11:19.388Z,0
2016-09-17T01:12:20.017Z,0
2016-09-17T01:13:20.723Z,0
2016-09-17T01:14:21.371Z,0
2016-09-17T01:15:22.384Z,0
2016-09-17T01:16:22.979Z,0
2016-09-17T01:17:23.617Z,0
2016-09-17T01:18:24.277Z,0
2016-09-17T01:19:24.954Z,0
2016-09-17T01:20:25.583Z,0
2016-09-17T01:21:26.243Z,0
2016-09-17T01:22:27.995Z,0
2016-09-17T01:23:28.649Z,0
2016-09-17T01:24:29.297Z,0
2016-09-17T01:25:29.948Z,0
2016-09-17T01:26:30.797Z,0
2016-09-17T01:27:31.272Z,0
2016-09-17T01:28:31.912Z,0
2016-09-17T01:29:32.589Z,0
2016-09-17T01:30:33.244Z,0
2016-09-17T01:31:33.967Z,0
2016-09-17T01:32:34.618Z,0
2016-09-17T01:33:35.274Z,0
2016-09-17T01:34:35.912Z,0
2016-09-17T01:35:36.554Z,0
2016-09-17T01:36:37.236Z,0
2016-09-17T01:37:37.879Z,0
2016-09-17T01:38:38.537Z,0
2016-09-17T01:39:39.203Z,0
2016-09-17T01:40:39.864Z,0
2016-09-17T01:41:40.601Z,0
2016-09-17T01:42:41.224Z,0
2016-09-17T01:43:41.895Z,0
2016-09-17T01:44:42.554Z,0
2016-09-17T01:45:43.203Z,0
2016-09-17T01:46:43.831Z,0
2016-09-17T01:47:44.487Z,0
2016-09-17T01:48:45.122Z,0
2016-09-17T01:49:45.779Z,0
2016-09-17T01:50:46.447Z,0
2016-09-17T01:51:47.079Z,0
2016-09-17T01:52:47.745Z,0
2016-09-17T01:53:48.407Z,0
2016-09-17T01:54:49.049Z,0
2016-09-17T01:55:49.686Z,0
2016-09-17T01:56:50.342Z,0
2016-09-17T01:57:51.016Z,0
2016-09-17T01:58:51.663Z,0
2016-09-17T01:59:52.312Z,0
2016-09-17T02:00:52.962Z,0
2016-09-17T02:01:53.609Z,0
2016-09-17T02:02:54.277Z,0
2016-09-17T02:03:54.923Z,0
2016-09-17T02:04:55.577Z,0
2016-09-17T02:05:56.236Z,0
2016-09-17T02:06:56.887Z,0
2016-09-17T02:07:57.543Z,0
2016-09-17T02:08:58.179Z,0
2016-09-17T02:09:58.826Z,0
2016-09-17T02:10:59.480Z,0
2016-09-17T02:12:00.129Z,0
2016-09-17T02:13:00.793Z,0
2016-09-17T02:14:01.429Z,0
2016-09-17T02:15:02.065Z,0
2016-09-17T02:16:02.709Z,0
2016-09-17T02:17:03.356Z,0
2016-09-17T02:18:04.009Z,0
2016-09-17T02:19:04.665Z,0
2016-09-17T02:20:05.308Z,0
2016-09-17T02:21:05.964Z,0
2016-09-17T02:22:06.931Z,0
2016-09-17T02:23:07.580Z,0
2016-09-17T02:24:08.218Z,0
2016-09-17T02:25:08.868Z,0
2016-09-17T02:26:09.506Z,0
2016-09-17T02:27:10.146Z,0
2016-09-17T02:28:10.781Z,0
2016-09-17T02:29:11.439Z,0
2016-09-17T02:30:12.085Z,0
2016-09-17T02:31:12.731Z,0
2016-09-17T02:32:13.385Z,0
2016-09-17T02:33:14.027Z,0
2016-09-17T02:34:14.666Z,0
2016-09-17T02:35:15.317Z,0
2016-09-17T02:36:15.963Z,0
2016-09-17T02:37:16.635Z,0
2016-09-17T02:38:17.279Z,0
2016-09-17T02:39:17.931Z,0
2016-09-17T02:40:18.592Z,0
2016-09-17T02:41:19.240Z,0
2016-09-17T02:42:19.883Z,0
2016-09-17T02:43:20.526Z,0
2016-09-17T02:44:21.164Z,0
2016-09-17T02:45:21.801Z,0
2016-09-17T02:46:22.465Z,0
2016-09-17T02:47:23.102Z,0
2016-09-17T02:48:23.742Z,0
2016-09-17T02:49:24.397Z,0
2016-09-17T02:50:25.051Z,0
2016-09-17T02:51:25.706Z,0
2016-09-17T02:52:26.369Z,0
2016-09-17T02:53:27.030Z,0
2016-09-17T02:54:27.676Z,0
2016-09-17T02:55:28.327Z,0
2016-09-17T02:56:28.987Z,0
2016-09-17T02:57:29.646Z,0
2016-09-17T02:58:30.301Z,0
2016-09-17T02:59:30.959Z,0
2016-09-17T03:00:31.599Z,0
2016-09-17T03:01:32.259Z,0
2016-09-17T03:02:32.915Z,0
2016-09-17T03:03:33.558Z,0
2016-09-17T03:04:34.208Z,0
2016-09-17T03:05:34.891Z,0
2016-09-17T03:06:36.677Z,0
2016-09-17T03:07:37.329Z,0
2016-09-17T03:08:37.981Z,0
2016-09-17T03:09:38.629Z,0
2016-09-17T03:10:39.273Z,0
2016-09-17T03:11:39.943Z,0
2016-09-17T03:12:40.612Z,0
2016-09-17T03:13:41.282Z,0
2016-09-17T03:14:41.925Z,0
2016-09-17T03:15:42.583Z,0
2016-09-17T03:16:43.240Z,0
2016-09-17T03:17:43.883Z,0
2016-09-17T03:18:44.527Z,0
2016-09-17T03:19:45.172Z,0
2016-09-17T03:20:45.838Z,0
2016-09-17T03:21:46.603Z,0
2016-09-17T03:22:47.177Z,0
2016-09-17T03:23:47.852Z,0
2016-09-17T03:24:48.498Z,0
2016-09-17T03:25:49.164Z,0
2016-09-17T03:26:49.831Z,0
2016-09-17T03:27:50.496Z,0
2016-09-17T03:28:51.168Z,0
2016-09-17T03:29:51.804Z,0
2016-09-17T03:30:52.449Z,0
2016-09-17T03:31:53.159Z,0
2016-09-17T03:32:53.837Z,0
2016-09-17T03:33:54.475Z,0
2016-09-17T03:34:55.143Z,0
2016-09-17T03:35:55.790Z,0
2016-09-17T03:36:56.435Z,0
2016-09-17T03:37:57.116Z,0
2016-09-17T03:38:57.788Z,0
2016-09-17T03:39:58.587Z,0
2016-09-17T03:40:59.238Z,0
2016-09-17T03:41:59.910Z,0
2016-09-17T03:43:00.579Z,0
2016-09-17T03:44:01.251Z,0
2016-09-17T03:45:01.918Z,0
2016-09-17T03:46:02.560Z,0
2016-09-17T03:47:03.210Z,0
2016-09-17T03:48:03.862Z,0
2016-09-17T03:49:04.530Z,0
2016-09-17T03:50:05.225Z,0
2016-09-17T03:51:05.897Z,0
2016-09-17T03:52:06.561Z,0
2016-09-17T03:53:07.207Z,0
2016-09-17T03:54:07.853Z,0
2016-09-17T03:55:08.517Z,0
2016-09-17T03:56:09.214Z,0
2016-09-17T03:57:09.865Z,0
2016-09-17T03:58:10.538Z,0
2016-09-17T03:59:11.174Z,0
2016-09-17T04:00:11.848Z,0
2016-09-17T04:01:12.569Z,0
2016-09-17T04:02:13.264Z,0
2016-09-17T04:03:13.941Z,0
2016-09-17T04:04:14.563Z,0
2016-09-17T04:05:15.224Z,0
2016-09-17T04:06:15.882Z,0
2016-09-17T04:07:16.618Z,0
2016-09-17T04:08:17.286Z,0
2016-09-17T04:09:17.968Z,0
2016-09-17T04:10:18.636Z,0
2016-09-17T04:11:19.319Z,0
2016-09-17T04:12:19.947Z,0
2016-09-17T04:13:20.583Z,0
2016-09-17T04:14:21.220Z,0
2016-09-17T04:15:21.868Z,0
2016-09-17T04:16:22.515Z,0
2016-09-17T04:17:23.212Z,0
2016-09-17T04:18:23.871Z,0
2016-09-17T04:19:24.518Z,0
2016-09-17T04:20:25.174Z,0
2016-09-17T04:21:25.836Z,0
2016-09-17T04:22:26.486Z,0
2016-09-17T04:23:27.129Z,0
2016-09-17T04:24:27.790Z,0
2016-09-17T04:25:28.449Z,0
2016-09-17T04:26:29.140Z,0
2016-09-17T04:27:29.821Z,0
2016-09-17T04:28:30.466Z,0
2016-09-17T04:29:31.122Z,0
2016-09-17T04:30:31.837Z,0
2016-09-17T04:31:32.499Z,0
2016-09-17T04:32:33.160Z,0
2016-09-17T04:33:33.818Z,0
2016-09-17T04:34:34.465Z,0
2016-09-17T04:35:35.133Z,0
2016-09-17T04:36:35.785Z,0
2016-09-17T04:37:36.432Z,0
2016-09-17T04:38:37.091Z,0
2016-09-17T04:39:37.740Z,0
2016-09-17T04:40:38.389Z,0
2016-09-17T04:41:39.035Z,0
2016-09-17T04:42:39.689Z,0
2016-09-17T04:43:40.325Z,0
2016-09-17T04:44:40.961Z,0
2016-09-17T04:45:41.608Z,0
2016-09-17T04:46:42.267Z,0
2016-09-17T04:47:42.918Z,0
2016-09-17T04:48:43.574Z,0
2016-09-17T04:49:44.216Z,0
2016-09-17T04:50:44.879Z,0
2016-09-17T04:51:45.528Z,0
2016-09-17T04:52:46.191Z,0
2016-09-17T04:53:46.841Z,0
2016-09-17T04:54:47.504Z,0
2016-09-17T04:55:48.156Z,0
2016-09-17T04:56:48.814Z,0
2016-09-17T04:57:49.475Z,0
2016-09-17T04:58:50.127Z,0
2016-09-17T04:59:50.779Z,0
2016-09-17T05:00:51.433Z,0
2016-09-17T05:01:52.082Z,0
2016-09-17T05:02:52.733Z,0
2016-09-17T05:03:53.389Z,0
2016-09-17T05:04:54.051Z,0
2016-09-17T05:05:54.729Z,0
2016-09-17T05:06:55.370Z,0
2016-09-17T05:07:56.023Z,0
2016-09-17T05:08:56.655Z,0
2016-09-17T05:09:57.289Z,0
2016-09-17T05:10:57.931Z,0
2016-09-17T05:11:58.592Z,0
2016-09-17T05:12:59.253Z,0
2016-09-17T05:13:59.891Z,0
2016-09-17T05:15:00.541Z,0
2016-09-17T05:16:01.188Z,0
2016-09-17T05:17:01.831Z,0
2016-09-17T05:18:02.480Z,0
2016-09-17T05:19:03.150Z,0
2016-09-17T05:20:03.812Z,0
2016-09-17T05:21:04.480Z,0
2016-09-17T05:22:05.135Z,0
2016-09-17T05:23:05.773Z,0
2016-09-17T05:24:06.441Z,0
2016-09-17T05:25:07.076Z,0
2016-09-17T05:26:07.747Z,0
2016-09-17T05:27:08.377Z,0
2016-09-17T05:28:09.019Z,0
2016-09-17T05:29:09.698Z,0
2016-09-17T05:30:10.333Z,0
2016-09-17T05:31:10.991Z,5
2016-09-17T05:32:11.643Z,5
2016-09-17T05:33:12.286Z,5
2016-09-17T05:34:12.925Z,5
2016-09-17T05:35:13.584Z,5
2016-09-17T05:36:14.221Z,5
2016-09-17T05:37:14.875Z,5
2016-09-17T05:38:15.533Z,5
2016-09-17T05:39:16.204Z,5
2016-09-17T05:40:16.853Z,5
2016-09-17T05:41:17.492Z,5
2016-09-17T05:42:18.137Z,5
2016-09-17T05:43:18.782Z,5
2016-09-17T05:44:19.420Z,10
2016-09-17T05:45:20.080Z,5
2016-09-17T05:46:20.722Z,10
2016-09-17T05:47:21.367Z,10
2016-09-17T05:48:22.027Z,10
2016-09-17T05:49:22.699Z,10
2016-09-17T05:50:23.336Z,5
2016-09-17T05:51:24.007Z,5
2016-09-17T05:52:24.655Z,5
2016-09-17T05:53:25.299Z,10
2016-09-17T05:54:25.958Z,10
2016-09-17T05:55:26.624Z,10
2016-09-17T05:56:27.268Z,15
2016-09-17T05:57:27.925Z,20
2016-09-17T05:58:28.586Z,20
2016-09-17T05:59:29.233Z,20
2016-09-17T06:00:29.963Z,20
2016-09-17T06:01:30.607Z,20
2016-09-17T06:02:31.270Z,20
2016-09-17T06:03:31.924Z,20
2016-09-17T06:04:32.572Z,20
2016-09-17T06:05:33.241Z,25
2016-09-17T06:06:33.891Z,30
2016-09-17T06:07:34.538Z,30
2016-09-17T06:08:35.201Z,30
2016-09-17T06:09:35.857Z,25
2016-09-17T06:10:36.518Z,25
2016-09-17T06:11:37.165Z,25
2016-09-17T06:12:37.816Z,25
2016-09-17T06:13:38.473Z,25
2016-09-17T06:14:39.124Z,30
2016-09-17T06:15:39.770Z,35
2016-09-17T06:16:40.434Z,40
2016-09-17T06:17:41.080Z,45
2016-09-17T06:18:41.732Z,40
2016-09-17T06:19:42.393Z,35
2016-09-17T06:20:43.054Z,35
2016-09-17T06:21:43.725Z,30
2016-09-17T06:22:44.379Z,30
2016-09-17T06:23:45.023Z,30
2016-09-17T06:24:45.667Z,30
2016-09-17T06:25:46.311Z,35
2016-09-17T06:26:46.971Z,40
2016-09-17T06:27:47.644Z,40
2016-09-17T06:28:48.303Z,35
2016-09-17T06:29:48.943Z,30
2016-09-17T06:30:49.588Z,25
2016-09-17T06:31:50.224Z,25
2016-09-17T06:32:50.870Z,30
2016-09-17T06:33:51.515Z,35
2016-09-17T06:34:52.167Z,40
2016-09-17T06:35:52.820Z,50
2016-09-17T06:36:53.454Z,55
2016-09-17T06:37:54.110Z,55
2016-09-17T06:38:54.759Z,55
2016-09-17T06:39:55.408Z,55
2016-09-17T06:40:56.072Z,60
2016-09-17T06:41:56.703Z,55
2016-09-17T06:42:57.360Z,60
2016-09-17T06:43:58.034Z,65
2016-09-17T06:44:58.679Z,70
2016-09-17T06:45:59.327Z,75
2016-09-17T06:46:59.966Z,80
2016-09-17T06:48:00.631Z,90
2016-09-17T06:49:01.294Z,90
2016-09-17T06:50:01.959Z,95
2016-09-17T06:51:02.602Z,105
2016-09-17T06:52:03.240Z,115
2016-09-17T06:53:03.910Z,120
2016-09-17T06:54:04.567Z,125
2016-09-17T06:55:05.222Z,125
2016-09-17T06:56:05.859Z,125
2016-09-17T06:57:06.516Z,125
2016-09-17T06:58:07.174Z,130
2016-09-17T06:59:07.820Z,135
2016-09-17T07:00:08.503Z,145
2016-09-17T07:01:09.149Z,155
2016-09-17T07:02:09.799Z,155
2016-09-17T07:03:10.438Z,150
2016-09-17T07:04:11.089Z,150
2016-09-17T07:05:11.732Z,155
2016-09-17T07:06:12.383Z,160
2016-09-17T07:07:13.032Z,165
2016-09-17T07:08:13.696Z,175
2016-09-17T07:09:14.363Z,155
2016-09-17T07:10:15.016Z,125
2016-09-17T07:11:15.670Z,145
2016-09-17T07:12:16.331Z,160
2016-09-17T07:13:16.999Z,150
2016-09-17T07:14:17.647Z,130
2016-09-17T07:15:18.303Z,130
2016-09-17T07:16:18.963Z,155
2016-09-17T07:17:19.617Z,200
2016-09-17T07:18:20.285Z,210
2016-09-17T07:19:20.949Z,220
2016-09-17T07:20:21.599Z,185
2016-09-17T07:21:22.251Z,155
2016-09-17T07:22:22.908Z,170
2016-09-17T07:23:23.585Z,150
2016-09-17T07:24:24.242Z,160
2016-09-17T07:25:24.891Z,170
2016-09-17T07:26:25.717Z,210
2016-09-17T07:27:26.381Z,215
2016-09-17T07:28:27.046Z,200
2016-09-17T07:29:27.837Z,180
2016-09-17T07:30:28.404Z,180
2016-09-17T07:31:29.106Z,180
2016-09-17T07:32:29.799Z,185
2016-09-17T07:33:30.598Z,185
2016-09-17T07:34:31.164Z,175
2016-09-17T07:35:31.817Z,190
2016-09-17T07:36:32.518Z,200
2016-09-17T07:37:33.157Z,235
2016-09-17T07:38:33.827Z,270
2016-09-17T07:39:34.493Z,255
2016-09-17T07:40:35.177Z,220
2016-09-17T07:41:35.861Z,230
2016-09-17T07:42:36.521Z,240
2016-09-17T07:43:37.197Z,245
2016-09-17T07:44:37.862Z,220
2016-09-17T07:45:38.509Z,210
2016-09-17T07:46:39.163Z,220
2016-09-17T07:47:39.822Z,185
2016-09-17T07:48:40.475Z,250
2016-09-17T07:49:41.126Z,305
2016-09-17T07:50:41.798Z,355
2016-09-17T07:51:42.465Z,375
2016-09-17T07:52:43.140Z,320
2016-09-17T07:53:43.781Z,210
2016-09-17T07:54:44.435Z,195
2016-09-17T07:55:45.081Z,270
2016-09-17T07:56:45.727Z,220
2016-09-17T07:57:46.370Z,220
2016-09-17T07:58:47.015Z,255
2016-09-17T07:59:47.671Z,235
2016-09-17T08:00:48.320Z,190
2016-09-17T08:01:48.975Z,170
2016-09-17T08:02:49.644Z,240
2016-09-17T08:03:50.321Z,275
2016-09-17T08:04:50.971Z,280
2016-09-17T08:05:51.628Z,325
2016-09-17T08:06:52.303Z,355
2016-09-17T08:07:52.961Z,390
2016-09-17T08:08:53.601Z,400
2016-09-17T08:09:54.278Z,375
2016-09-17T08:10:54.988Z,345
2016-09-17T08:11:55.633Z,340
2016-09-17T08:12:56.286Z,330
2016-09-17T08:13:56.954Z,320
2016-09-17T08:14:57.603Z,315
2016-09-17T08:15:58.258Z,285
2016-09-17T08:16:58.905Z,280
2016-09-17T08:17:59.556Z,260
2016-09-17T08:19:00.228Z,240
2016-09-17T08:20:00.866Z,240
2016-09-17T08:21:01.516Z,240
2016-09-17T08:22:02.150Z,280
2016-09-17T08:23:02.825Z,220
2016-09-17T08:24:03.490Z,220
2016-09-17T08:25:04.265Z,260
2016-09-17T08:26:04.924Z,240
2016-09-17T08:27:05.568Z,175
2016-09-17T08:28:06.225Z,210
2016-09-17T08:29:06.879Z,265
2016-09-17T08:30:07.550Z,225
2016-09-17T08:31:08.192Z,220
2016-09-17T08:32:08.867Z,190
2016-09-17T08:33:09.531Z,190
2016-09-17T08:34:10.212Z,235
2016-09-17T08:35:10.879Z,225
2016-09-17T08:36:11.542Z,325
2016-09-17T08:37:12.205Z,460
2016-09-17T08:38:12.858Z,675
2016-09-17T08:39:13.515Z,495
2016-09-17T08:40:14.149Z,355
2016-09-17T08:41:14.816Z,450
2016-09-17T08:42:15.469Z,465
2016-09-17T08:43:16.123Z,535
2016-09-17T08:44:16.815Z,550
2016-09-17T08:45:17.465Z,540
2016-09-17T08:46:18.112Z,535
2016-09-17T08:47:18.793Z,520
2016-09-17T08:48:19.453Z,395
2016-09-17T08:49:20.094Z,340
2016-09-17T08:50:20.765Z,320
2016-09-17T08:51:21.423Z,310
2016-09-17T08:52:22.088Z,300
2016-09-17T08:53:22.746Z,290
2016-09-17T08:54:23.408Z,285
2016-09-17T08:55:24.059Z,270
2016-09-17T08:56:24.739Z,265
2016-09-17T08:57:25.389Z,270
2016-09-17T08:58:26.089Z,265
2016-09-17T08:59:26.754Z,270
2016-09-17T09:00:27.456Z,280
2016-09-17T09:01:28.106Z,295
2016-09-17T09:02:28.779Z,310
2016-09-17T09:03:29.445Z,320
2016-09-17T09:04:30.093Z,330
2016-09-17T09:05:30.824Z,355
2016-09-17T09:06:31.469Z,360
2016-09-17T09:07:32.300Z,375
2016-09-17T09:08:32.963Z,365
2016-09-17T09:09:33.691Z,370
2016-09-17T09:10:34.373Z,350
2016-09-17T09:11:35.033Z,330
2016-09-17T09:12:35.695Z,315
2016-09-17T09:13:36.361Z,310
2016-09-17T09:14:37.054Z,315
2016-09-17T09:15:37.722Z,335
2016-09-17T09:16:38.411Z,360
2016-09-17T09:17:39.076Z,400
2016-09-17T09:18:39.757Z,425
2016-09-17T09:19:40.468Z,445
2016-09-17T09:20:41.190Z,470
2016-09-17T09:21:41.848Z,505
2016-09-17T09:22:42.516Z,525
2016-09-17T09:23:43.865Z,545
2016-09-17T09:24:44.530Z,545
2016-09-17T09:25:45.197Z,540
2016-09-17T09:26:45.861Z,555
2016-09-17T09:27:46.533Z,570
2016-09-17T09:28:47.276Z,575
2016-09-17T09:29:47.928Z,590
2016-09-17T09:30:48.583Z,600
2016-09-17T09:31:49.257Z,610
2016-09-17T09:32:49.928Z,600
2016-09-17T09:33:50.610Z,565
2016-09-17T09:34:51.283Z,530
2016-09-17T09:35:51.943Z,505
2016-09-17T09:36:52.611Z,490
2016-09-17T09:37:53.270Z,485
2016-09-17T09:38:53.926Z,480
2016-09-17T09:39:54.633Z,485
2016-09-17T09:40:55.342Z,480
2016-09-17T09:41:56.038Z,475
2016-09-17T09:42:56.723Z,465
2016-09-17T09:43:58.241Z,450
2016-09-17T09:44:58.922Z,435
2016-09-17T09:45:59.626Z,430
2016-09-17T09:47:00.305Z,440
2016-09-17T09:48:00.965Z,455
2016-09-17T09:49:01.658Z,465
2016-09-17T09:50:02.350Z,465
2016-09-17T09:51:03.045Z,460
2016-09-17T09:52:03.703Z,440
2016-09-17T09:53:04.369Z,425
2016-09-17T09:54:05.112Z,420
2016-09-17T09:55:05.742Z,420
2016-09-17T09:56:06.410Z,430
2016-09-17T09:57:07.087Z,450
2016-09-17T09:58:07.743Z,475
2016-09-17T09:59:08.436Z,500
2016-09-17T10:00:09.086Z,510
2016-09-17T10:01:09.750Z,520
2016-09-17T10:02:10.403Z,535
2016-09-17T10:03:11.074Z,540
2016-09-17T10:04:11.759Z,545
2016-09-17T10:05:12.439Z,565
2016-09-17T10:06:13.100Z,580
2016-09-17T10:07:13.762Z,585
2016-09-17T10:08:14.429Z,575
2016-09-17T10:09:15.094Z,555
2016-09-17T10:10:15.775Z,535
2016-09-17T10:11:16.426Z,525
2016-09-17T10:12:17.097Z,515
2016-09-17T10:13:17.778Z,505
2016-09-17T10:14:18.441Z,505
2016-09-17T10:15:19.092Z,510
2016-09-17T10:16:19.742Z,515
2016-09-17T10:17:20.468Z,530
2016-09-17T10:18:21.156Z,545
2016-09-17T10:19:21.842Z,555
2016-09-17T10:20:22.503Z,530
2016-09-17T10:21:23.162Z,495
2016-09-17T10:22:23.825Z,475
2016-09-17T10:23:24.506Z,450
2016-09-17T10:24:25.165Z,455
2016-09-17T10:25:25.836Z,465
2016-09-17T10:26:26.521Z,465
2016-09-17T10:27:28.058Z,475
2016-09-17T10:28:28.624Z,465
2016-09-17T10:29:29.275Z,475
2016-09-17T10:30:29.930Z,480
2016-09-17T10:31:30.602Z,465
2016-09-17T10:32:31.297Z,420
2016-09-17T10:33:31.950Z,365
2016-09-17T10:34:32.591Z,340
2016-09-17T10:35:33.253Z,340
2016-09-17T10:36:33.914Z,345
2016-09-17T10:37:34.558Z,365
2016-09-17T10:38:35.214Z,390
2016-09-17T10:39:35.867Z,420
2016-09-17T10:40:36.512Z,460
2016-09-17T10:41:37.175Z,465
2016-09-17T10:42:37.833Z,435
2016-09-17T10:43:38.495Z,410
2016-09-17T10:44:39.160Z,385
2016-09-17T10:45:39.822Z,365
2016-09-17T10:46:40.469Z,350
2016-09-17T10:47:41.141Z,335
2016-09-17T10:48:41.790Z,335
2016-09-17T10:49:42.458Z,340
2016-09-17T10:50:43.122Z,335
2016-09-17T10:51:43.779Z,335
2016-09-17T10:52:44.468Z,330
2016-09-17T10:53:45.096Z,325
2016-09-17T10:54:45.777Z,340
2016-09-17T10:55:46.418Z,335
2016-09-17T10:56:47.078Z,335
2016-09-17T10:57:47.731Z,340
2016-09-17T10:58:48.392Z,330
2016-09-17T10:59:49.052Z,325
2016-09-17T11:00:49.702Z,325
2016-09-17T11:01:50.348Z,320
2016-09-17T11:02:51.053Z,315
2016-09-17T11:03:51.719Z,315
2016-09-17T11:04:52.375Z,310
2016-09-17T11:05:53.025Z,325
2016-09-17T11:06:53.691Z,315
2016-09-17T11:07:54.358Z,320
2016-09-17T11:08:55.022Z,330
2016-09-17T11:09:55.661Z,310
2016-09-17T11:10:56.335Z,310
2016-09-17T11:11:57.126Z,335
2016-09-17T11:12:57.875Z,340
2016-09-17T11:13:58.551Z,325
2016-09-17T11:14:59.223Z,325
2016-09-17T11:15:59.867Z,325
2016-09-17T11:17:00.528Z,320
2016-09-17T11:18:01.209Z,320
2016-09-17T11:19:01.973Z,335
2016-09-17T11:20:02.669Z,335
2016-09-17T11:21:03.314Z,330
2016-09-17T11:22:03.982Z,320
2016-09-17T11:23:04.628Z,330
2016-09-17T11:24:05.279Z,330
2016-09-17T11:25:06.011Z,305
2016-09-17T11:26:06.702Z,315
2016-09-17T11:27:07.358Z,310
2016-09-17T11:28:08.005Z,325
2016-09-17T11:29:08.717Z,315
2016-09-17T11:30:09.516Z,310
2016-09-17T11:31:10.163Z,345
2016-09-17T11:32:10.758Z,310
2016-09-17T11:33:11.441Z,290
2016-09-17T11:34:12.109Z,320
2016-09-17T11:35:12.783Z,250
2016-09-17T11:36:13.436Z,285
2016-09-17T11:37:14.091Z,285
2016-09-17T11:38:14.804Z,290
2016-09-17T11:39:15.486Z,280
2016-09-17T11:40:16.197Z,295
2016-09-17T11:41:16.873Z,295
2016-09-17T11:42:17.537Z,310
2016-09-17T11:43:18.208Z,315
2016-09-17T11:44:18.889Z,310
2016-09-17T11:45:19.567Z,310
2016-09-17T11:46:20.221Z,310
2016-09-17T11:47:20.902Z,315
2016-09-17T11:48:21.572Z,310
2016-09-17T11:49:22.251Z,305
2016-09-17T11:50:22.915Z,310
2016-09-17T11:51:23.588Z,310
2016-09-17T11:52:24.255Z,315
2016-09-17T11:53:24.897Z,315
2016-09-17T11:54:25.604Z,320
2016-09-17T11:55:26.281Z,310
2016-09-17T11:56:26.944Z,305
2016-09-17T11:57:27.622Z,310
2016-09-17T11:58:28.287Z,310
2016-09-17T11:59:28.935Z,310
2016-09-17T12:00:29.593Z,305
2016-09-17T12:01:30.268Z,305
2016-09-17T12:02:30.921Z,300
2016-09-17T12:03:31.592Z,300
2016-09-17T12:04:32.257Z,310
2016-09-17T12:05:32.923Z,300
2016-09-17T12:06:33.574Z,300
2016-09-17T12:07:34.248Z,290
2016-09-17T12:08:34.910Z,290
2016-09-17T12:09:35.561Z,290
2016-09-17T12:10:36.204Z,290
2016-09-17T12:11:36.930Z,290
2016-09-17T12:12:37.694Z,285
2016-09-17T12:13:38.417Z,280
2016-09-17T12:14:39.063Z,275
2016-09-17T12:15:39.721Z,275
2016-09-17T12:16:40.425Z,275
2016-09-17T12:17:41.102Z,270
2016-09-17T12:18:41.756Z,265
2016-09-17T12:19:42.420Z,260
2016-09-17T12:20:43.094Z,260
2016-09-17T12:21:43.745Z,265
2016-09-17T12:22:44.408Z,265
2016-09-17T12:23:45.055Z,275
2016-09-17T12:24:45.711Z,280
2016-09-17T12:25:46.374Z,285
2016-09-17T12:26:47.025Z,295
2016-09-17T12:27:47.702Z,310
2016-09-17T12:28:48.563Z,340
2016-09-17T12:29:49.153Z,345
2016-09-17T12:30:49.809Z,335
2016-09-17T12:31:50.481Z,315
2016-09-17T12:32:51.156Z,290
2016-09-17T12:33:51.807Z,275
2016-09-17T12:34:52.485Z,260
2016-09-17T12:35:53.144Z,245
2016-09-17T12:36:53.792Z,235
2016-09-17T12:37:54.455Z,235
2016-09-17T12:38:55.103Z,225
2016-09-17T12:39:55.776Z,225
2016-09-17T12:40:56.446Z,220
2016-09-17T12:41:57.102Z,220
2016-09-17T12:42:57.767Z,225
2016-09-17T12:43:58.415Z,220
2016-09-17T12:44:59.085Z,215
2016-09-17T12:45:59.760Z,215
2016-09-17T12:47:00.422Z,215
2016-09-17T12:48:01.110Z,215
2016-09-17T12:49:01.753Z,220
2016-09-17T12:50:02.404Z,215
2016-09-17T12:51:03.077Z,215
2016-09-17T12:52:03.737Z,210
2016-09-17T12:53:04.397Z,210
2016-09-17T12:54:05.042Z,210
2016-09-17T12:55:05.692Z,210
2016-09-17T12:56:06.334Z,205
2016-09-17T12:57:06.998Z,210
2016-09-17T12:58:07.659Z,210
2016-09-17T12:59:08.324Z,210
2016-09-17T13:00:08.973Z,210
2016-09-17T13:01:09.638Z,210
2016-09-17T13:02:10.276Z,210
2016-09-17T13:03:10.931Z,210
2016-09-17T13:04:11.577Z,210
2016-09-17T13:05:12.262Z,210
2016-09-17T13:06:12.937Z,210
2016-09-17T13:07:13.593Z,205
2016-09-17T13:08:14.246Z,205
2016-09-17T13:09:14.903Z,205
2016-09-17T13:10:15.565Z,200
2016-09-17T13:11:16.220Z,200
2016-09-17T13:12:16.866Z,200
2016-09-17T13:13:17.542Z,195
2016-09-17T13:14:18.212Z,190
2016-09-17T13:15:18.904Z,190
2016-09-17T13:16:19.615Z,185
2016-09-17T13:17:20.246Z,185
2016-09-17T13:18:20.903Z,180
2016-09-17T13:19:21.552Z,175
2016-09-17T13:20:22.203Z,175
2016-09-17T13:21:22.868Z,170
2016-09-17T13:22:23.543Z,170
2016-09-17T13:23:24.214Z,165
2016-09-17T13:24:24.889Z,170
2016-09-17T13:25:25.555Z,165
2016-09-17T13:26:26.232Z,160
2016-09-17T13:27:26.907Z,160
2016-09-17T13:28:27.578Z,160
2016-09-17T13:29:28.244Z,160
2016-09-17T13:30:28.917Z,160
2016-09-17T13:31:29.581Z,155
2016-09-17T13:32:30.223Z,155
2016-09-17T13:33:30.882Z,155
2016-09-17T13:34:31.525Z,155
2016-09-17T13:35:32.207Z,155
2016-09-17T13:36:32.862Z,155
2016-09-17T13:37:33.525Z,155
2016-09-17T13:38:34.171Z,150
2016-09-17T13:39:34.830Z,150
2016-09-17T13:40:35.503Z,150
2016-09-17T13:41:36.151Z,150
2016-09-17T13:42:36.819Z,150
2016-09-17T13:43:37.478Z,150
2016-09-17T13:44:38.130Z,150
2016-09-17T13:45:38.799Z,150
2016-09-17T13:46:39.445Z,150
2016-09-17T13:47:40.096Z,155
2016-09-17T13:48:40.753Z,155
2016-09-17T13:49:41.426Z,155
2016-09-17T13:50:42.094Z,155
2016-09-17T13:51:42.775Z,155
2016-09-17T13:52:43.434Z,155
2016-09-17T13:53:44.097Z,155
2016-09-17T13:54:44.742Z,160
2016-09-17T13:55:45.411Z,155
2016-09-17T13:56:46.086Z,160
2016-09-17T13:57:46.752Z,160
2016-09-17T13:58:47.437Z,160
2016-09-17T13:59:48.111Z,165
2016-09-17T14:00:48.812Z,165
2016-09-17T14:01:49.463Z,165
2016-09-17T14:02:50.130Z,165
2016-09-17T14:03:50.789Z,165
2016-09-17T14:04:51.453Z,170
2016-09-17T14:05:52.118Z,170
2016-09-17T14:06:52.792Z,170
2016-09-17T14:07:53.467Z,170
2016-09-17T14:08:54.145Z,170
2016-09-17T14:09:54.789Z,175
2016-09-17T14:10:55.432Z,175
2016-09-17T14:11:56.079Z,180
2016-09-17T14:12:56.739Z,180
2016-09-17T14:13:57.388Z,185
2016-09-17T14:14:58.032Z,185
2016-09-17T14:15:58.730Z,185
2016-09-17T14:16:59.350Z,190
2016-09-17T14:17:59.997Z,195
2016-09-17T14:19:00.659Z,200
2016-09-17T14:20:01.324Z,200
2016-09-17T14:21:01.966Z,200